Time;durP1;ratioP1;P1;durP2;ratioP2;P2;SDS_P1;SDS_P2;PMS_P1;PMS_P2;Temp;Humidity;BMP_temperature;BMP_pressure;BME280_temperature;BME280_humidity;BME280_pressure;Samples;Min_cycle;Max_cycle;Signal;HPM_P1;HPM_P2
2021/10/10 00:02:16;;;;;;;10.48;5.60;;;13.60;99.90;;;;;;5051947;28;20021;-78
2021/10/10 00:04:42;;;;;;;12.13;5.70;;;13.50;99.90;;;;;;5051754;28;20013;-78
2021/10/10 00:07:08;;;;;;;7.57;5.40;;;13.50;99.90;;;;;;5037394;28;20017;-78
2021/10/10 00:09:33;;;;;;;10.15;5.93;;;13.50;99.90;;;;;;5064054;28;20480;-78
2021/10/10 00:11:59;;;;;;;7.82;5.25;;;13.50;99.90;;;;;;5031664;28;20472;-78
2021/10/10 00:14:25;;;;;;;6.13;5.40;;;13.50;99.90;;;;;;5063613;28;20040;-78
2021/10/10 00:16:50;;;;;;;7.97;5.75;;;13.40;99.90;;;;;;5063945;28;20421;-78
2021/10/10 00:19:16;;;;;;;12.23;5.38;;;13.50;99.90;;;;;;5063634;28;20120;-78
2021/10/10 00:21:42;;;;;;;7.70;5.18;;;13.50;99.90;;;;;;5031734;28;20014;-78
2021/10/10 00:24:07;;;;;;;8.02;5.05;;;13.40;99.90;;;;;;5031687;28;20112;-78
2021/10/10 00:26:33;;;;;;;8.30;6.05;;;13.40;99.90;;;;;;5031363;28;20033;-78
2021/10/10 00:28:59;;;;;;;7.03;5.25;;;13.40;99.90;;;;;;5031433;28;20029;-78
2021/10/10 00:31:25;;;;;;;6.78;5.85;;;13.30;99.90;;;;;;5063600;28;20099;-78
2021/10/10 00:33:51;;;;;;;8.75;5.97;;;13.30;99.90;;;;;;5031147;28;20076;-78
2021/10/10 00:36:16;;;;;;;10.05;5.60;;;13.30;99.90;;;;;;5031526;28;20018;-78
2021/10/10 00:38:43;;;;;;;8.50;5.88;;;13.30;99.90;;;;;;5031448;28;20032;-78
2021/10/10 00:41:09;;;;;;;9.50;6.47;;;13.40;99.90;;;;;;5031284;28;20018;-78
2021/10/10 00:43:34;;;;;;;10.95;5.63;;;13.40;99.90;;;;;;5031425;28;20029;-78
2021/10/10 00:46:01;;;;;;;14.27;5.53;;;13.40;99.90;;;;;;5030116;28;20029;-78
2021/10/10 00:48:26;;;;;;;9.63;6.13;;;13.40;99.90;;;;;;5031288;28;20562;-78
2021/10/10 00:50:52;;;;;;;10.80;5.55;;;13.30;99.90;;;;;;5031465;28;20100;-78
2021/10/10 00:53:18;;;;;;;8.82;5.95;;;13.20;99.90;;;;;;5031208;28;20078;-78
2021/10/10 00:55:50;;;;;;;7.15;6.10;;;13.30;99.90;;;;;;5031334;28;20384;-78
2021/10/10 00:58:20;;;;;;;6.88;5.88;;;13.30;99.90;;;;;;5031381;28;20030;-78
2021/10/10 01:00:46;;;;;;;9.95;5.95;;;13.20;99.90;;;;;;5031323;28;20022;-78
2021/10/10 01:03:11;;;;;;;8.88;5.72;;;13.30;99.90;;;;;;5031962;28;20040;-78
2021/10/10 01:05:37;;;;;;;12.20;6.75;;;13.30;99.90;;;;;;5051041;28;20025;-78
2021/10/10 01:08:03;;;;;;;9.02;5.72;;;13.30;99.90;;;;;;5051115;28;20548;-78
2021/10/10 01:10:29;;;;;;;10.48;5.70;;;13.30;99.90;;;;;;5050939;28;20032;-78
2021/10/10 01:12:55;;;;;;;6.68;5.50;;;13.30;99.90;;;;;;5051045;28;20108;-79
2021/10/10 01:15:21;;;;;;;9.73;5.95;;;13.40;99.90;;;;;;5049830;28;20025;-78
2021/10/10 01:17:49;;;;;;;8.25;5.82;;;13.30;99.90;;;;;;5050812;28;20025;-78
2021/10/10 01:20:18;;;;;;;11.55;6.47;;;13.30;99.90;;;;;;5050912;28;20032;-78
2021/10/10 01:22:43;;;;;;;7.40;5.88;;;13.30;99.90;;;;;;5050954;28;20104;-79
2021/10/10 01:25:09;;;;;;;9.95;6.47;;;13.30;99.90;;;;;;5050902;28;20547;-78
2021/10/10 01:27:35;;;;;;;8.05;5.47;;;13.20;99.90;;;;;;5050660;28;20029;-78
2021/10/10 01:30:01;;;;;;;12.43;6.20;;;13.20;99.90;;;;;;5049734;28;20037;-78
2021/10/10 01:32:26;;;;;;;10.55;6.40;;;13.20;99.90;;;;;;5050679;28;20060;-78
2021/10/10 01:34:52;;;;;;;10.10;5.88;;;13.10;99.90;;;;;;5050834;28;20017;-78
2021/10/10 01:37:18;;;;;;;6.32;5.45;;;13.20;99.90;;;;;;5050711;28;20029;-78
2021/10/10 01:39:44;;;;;;;14.23;6.45;;;13.20;99.90;;;;;;5049571;28;20521;-78
2021/10/10 01:42:10;;;;;;;9.23;5.68;;;13.10;99.90;;;;;;5054354;28;20025;-78
2021/10/10 01:44:35;;;;;;;8.73;6.03;;;13.20;99.90;;;;;;5054476;28;20030;-78
2021/10/10 01:47:01;;;;;;;9.52;5.82;;;13.10;99.90;;;;;;5054189;28;20025;-78
2021/10/10 01:49:27;;;;;;;12.00;6.28;;;13.10;99.90;;;;;;5054332;28;20029;-78
2021/10/10 01:51:53;;;;;;;6.57;5.75;;;13.20;99.90;;;;;;5054285;28;20120;-78
2021/10/10 01:54:19;;;;;;;10.40;6.00;;;13.00;99.90;;;;;;5054088;28;20479;-79
2021/10/10 01:56:45;;;;;;;9.75;6.25;;;13.00;99.90;;;;;;5054067;28;20029;-78
2021/10/10 01:59:10;;;;;;;11.32;6.25;;;13.00;99.90;;;;;;5054115;28;20044;-78
2021/10/10 02:01:36;;;;;;;7.43;5.30;;;13.00;99.90;;;;;;5051927;28;20494;-78
2021/10/10 02:04:02;;;;;;;8.32;5.38;;;12.90;99.90;;;;;;5033993;28;20104;-78
2021/10/10 02:06:28;;;;;;;10.13;6.47;;;12.90;99.90;;;;;;5033851;28;20021;-78
2021/10/10 02:08:53;;;;;;;8.05;5.90;;;12.80;99.90;;;;;;5033965;28;20029;-78
2021/10/10 02:11:19;;;;;;;8.50;5.40;;;12.80;99.90;;;;;;5034012;28;20368;-78
2021/10/10 02:13:45;;;;;;;11.73;6.30;;;12.80;99.90;;;;;;5032626;28;20025;-78
2021/10/10 02:16:11;;;;;;;7.78;5.53;;;12.70;99.90;;;;;;5033815;28;20018;-78
2021/10/10 02:18:37;;;;;;;8.00;6.20;;;12.80;99.90;;;;;;5033872;28;20075;-78
2021/10/10 02:21:03;;;;;;;9.95;5.85;;;12.70;99.90;;;;;;5032466;28;20021;-79
2021/10/10 02:23:28;;;;;;;8.23;6.43;;;12.70;99.90;;;;;;5033849;28;20423;-78
2021/10/10 02:25:54;;;;;;;8.27;6.22;;;12.70;99.90;;;;;;5033714;28;20029;-79
2021/10/10 02:28:20;;;;;;;12.05;6.07;;;12.60;99.90;;;;;;5033453;28;20022;-79
2021/10/10 02:30:47;;;;;;;14.75;5.80;;;12.70;99.90;;;;;;5032411;28;20075;-78
2021/10/10 02:33:13;;;;;;;9.10;6.32;;;12.70;99.90;;;;;;5034525;28;20033;-79
2021/10/10 02:35:39;;;;;;;12.15;6.53;;;12.70;99.90;;;;;;5053409;28;20051;-78
2021/10/10 02:38:05;;;;;;;9.65;6.28;;;12.70;99.90;;;;;;5053350;28;20026;-79
2021/10/10 02:40:31;;;;;;;10.40;6.38;;;12.70;99.90;;;;;;5053350;28;20013;-79
2021/10/10 02:42:57;;;;;;;9.90;6.68;;;12.70;99.90;;;;;;5039258;28;20429;-79
2021/10/10 02:45:22;;;;;;;13.23;6.38;;;12.70;99.90;;;;;;5033325;28;20033;-79
2021/10/10 02:47:48;;;;;;;9.88;6.63;;;12.60;99.90;;;;;;5033162;28;20115;-79
2021/10/10 02:50:14;;;;;;;13.35;6.80;;;12.70;99.90;;;;;;5032989;28;20083;-79
2021/10/10 02:52:40;;;;;;;13.10;6.90;;;12.70;99.90;;;;;;5031899;28;20065;-78
2021/10/10 02:55:06;;;;;;;11.98;6.15;;;12.70;99.90;;;;;;5031804;28;20034;-79
2021/10/10 02:57:32;;;;;;;9.07;6.30;;;12.70;99.90;;;;;;5032919;28;20033;-79
2021/10/10 02:59:58;;;;;;;7.43;6.57;;;12.70;99.90;;;;;;5033157;28;20022;-79
2021/10/10 03:02:23;;;;;;;9.65;6.53;;;12.70;99.90;;;;;;5033036;28;20021;-78
2021/10/10 03:04:49;;;;;;;10.23;6.38;;;12.60;99.90;;;;;;5046974;28;20021;-79
2021/10/10 03:07:15;;;;;;;8.60;6.32;;;12.70;99.90;;;;;;5051559;28;20048;-78
2021/10/10 03:09:40;;;;;;;13.70;6.90;;;12.70;99.90;;;;;;5052701;28;20024;-79
2021/10/10 03:12:06;;;;;;;9.02;6.20;;;12.60;99.90;;;;;;5052684;28;20025;-79
2021/10/10 03:14:32;;;;;;;11.95;6.50;;;12.60;99.90;;;;;;5051367;28;20025;-79
2021/10/10 03:16:57;;;;;;;10.20;6.38;;;12.60;99.90;;;;;;5051121;28;20021;-79
2021/10/10 03:19:23;;;;;;;8.80;6.63;;;12.60;99.90;;;;;;5051538;28;20028;-79
2021/10/10 03:21:49;;;;;;;6.80;6.07;;;12.60;99.90;;;;;;5051204;28;20021;-79
2021/10/10 03:24:14;;;;;;;9.30;5.78;;;12.50;99.90;;;;;;5051084;28;20506;-79
2021/10/10 03:26:40;;;;;;;10.10;6.55;;;12.40;99.90;;;;;;5052430;28;20109;-79
2021/10/10 03:29:06;;;;;;;9.65;6.78;;;12.50;99.90;;;;;;5052317;28;20021;-79
2021/10/10 03:31:31;;;;;;;10.32;6.18;;;12.50;99.90;;;;;;5052210;28;20029;-79
2021/10/10 03:33:57;;;;;;;9.82;6.90;;;12.40;99.90;;;;;;5052051;28;20045;-79
2021/10/10 03:36:23;;;;;;;11.00;6.00;;;12.40;99.90;;;;;;5051956;28;20021;-79
2021/10/10 03:38:49;;;;;;;12.02;6.53;;;12.40;99.90;;;;;;5052205;28;20017;-79
2021/10/10 03:41:14;;;;;;;12.07;7.22;;;12.30;99.90;;;;;;5052311;28;20055;-78
2021/10/10 03:43:40;;;;;;;9.27;6.32;;;12.30;99.90;;;;;;5052088;28;20111;-79
2021/10/10 03:46:06;;;;;;;11.75;7.15;;;12.20;99.90;;;;;;5051962;28;20029;-79
2021/10/10 03:48:31;;;;;;;12.57;6.93;;;12.20;99.90;;;;;;5031148;28;20056;-79
2021/10/10 03:50:57;;;;;;;11.23;6.63;;;12.20;99.90;;;;;;5023402;28;20036;-79
2021/10/10 03:53:32;;;;;;;10.18;7.10;;;12.20;99.90;;;;;;5025808;28;20026;-79
2021/10/10 03:55:58;;;;;;;11.48;6.70;;;12.10;99.90;;;;;;5024502;28;20076;-79
2021/10/10 03:58:23;;;;;;;14.35;6.57;;;12.10;99.90;;;;;;5024188;28;20029;-79
2021/10/10 04:00:49;;;;;;;11.13;6.75;;;12.00;99.90;;;;;;5027206;28;20370;-79
2021/10/10 04:03:17;;;;;;;10.43;6.20;;;12.00;99.90;;;;;;5029401;28;20060;-79
2021/10/10 04:05:45;;;;;;;11.75;6.03;;;11.90;99.90;;;;;;5024291;28;20032;-78
2021/10/10 04:08:11;;;;;;;9.98;6.25;;;11.80;99.90;;;;;;5027622;28;20123;-78
2021/10/10 04:10:37;;;;;;;10.43;6.22;;;11.80;99.90;;;;;;5031189;28;20447;-79
2021/10/10 04:13:06;;;;;;;11.25;6.57;;;11.80;99.90;;;;;;5031683;28;20031;-79
2021/10/10 04:15:32;;;;;;;9.45;7.15;;;11.70;99.90;;;;;;5030718;28;20026;-79
2021/10/10 04:17:58;;;;;;;11.32;6.95;;;11.80;99.90;;;;;;5030838;28;20028;-79
2021/10/10 04:20:23;;;;;;;12.90;6.47;;;11.80;99.90;;;;;;5031653;28;20025;-79
2021/10/10 04:22:49;;;;;;;9.15;6.60;;;11.80;99.90;;;;;;5031256;28;20452;-79
2021/10/10 04:25:15;;;;;;;8.18;6.43;;;11.80;99.90;;;;;;5031530;28;20037;-79
2021/10/10 04:27:41;;;;;;;9.15;6.38;;;11.90;99.90;;;;;;5030178;28;20025;-79
2021/10/10 04:30:13;;;;;;;8.75;6.97;;;11.80;99.90;;;;;;5031419;28;20441;-79
2021/10/10 04:32:43;;;;;;;21.45;8.35;;;11.80;99.90;;;;;;5030009;28;20470;-79
2021/10/10 04:35:10;;;;;;;11.90;6.30;;;11.80;99.90;;;;;;5031405;28;20017;-79
2021/10/10 04:37:35;;;;;;;11.15;7.03;;;11.80;99.90;;;;;;5030231;28;20052;-79
2021/10/10 04:40:02;;;;;;;12.02;7.10;;;11.70;99.90;;;;;;5031380;28;20053;-79
2021/10/10 04:42:28;;;;;;;8.60;6.72;;;11.70;99.90;;;;;;5030145;28;20025;-79
2021/10/10 04:44:54;;;;;;;16.88;6.65;;;11.70;99.90;;;;;;5031204;28;20026;-79
2021/10/10 04:47:20;;;;;;;14.30;6.18;;;11.60;99.90;;;;;;5029660;28;20128;-79
2021/10/10 04:49:46;;;;;;;10.10;6.47;;;11.60;99.90;;;;;;5031229;28;20021;-79
2021/10/10 04:52:12;;;;;;;10.60;6.53;;;11.50;99.90;;;;;;5030185;28;20075;-79
2021/10/10 04:54:38;;;;;;;12.07;7.38;;;11.60;99.90;;;;;;5031035;28;20021;-78
2021/10/10 04:57:03;;;;;;;10.45;7.57;;;11.60;99.90;;;;;;5030226;28;20033;-79
2021/10/10 04:59:29;;;;;;;14.23;6.30;;;11.50;99.90;;;;;;5031021;28;20021;-79
2021/10/10 05:01:55;;;;;;;9.38;6.70;;;11.40;99.90;;;;;;5031315;28;20021;-79
2021/10/10 05:04:20;;;;;;;12.95;7.43;;;11.40;99.90;;;;;;5031176;28;20025;-79
2021/10/10 05:06:46;;;;;;;13.68;6.85;;;11.40;99.90;;;;;;5031134;28;20025;-79
2021/10/10 05:09:12;;;;;;;14.65;7.15;;;11.40;99.90;;;;;;5031115;28;20037;-79
2021/10/10 05:11:37;;;;;;;14.45;7.20;;;11.50;99.90;;;;;;5031164;28;20029;-79
2021/10/10 05:14:03;;;;;;;12.70;6.85;;;11.40;99.90;;;;;;5030811;28;20478;-79
2021/10/10 05:16:29;;;;;;;9.18;7.25;;;11.50;99.90;;;;;;5033920;28;20108;-79
2021/10/10 05:18:55;;;;;;;12.70;7.47;;;11.40;99.90;;;;;;5034777;28;20021;-79
2021/10/10 05:21:20;;;;;;;12.32;7.15;;;11.50;99.90;;;;;;5034932;28;20100;-79
2021/10/10 05:23:46;;;;;;;12.70;7.25;;;11.50;99.90;;;;;;5034657;28;20387;-79
2021/10/10 05:26:12;;;;;;;11.98;6.65;;;11.60;99.90;;;;;;5034751;28;20028;-79
2021/10/10 05:28:38;;;;;;;10.68;6.68;;;11.60;99.90;;;;;;5033214;28;20117;-79
2021/10/10 05:31:04;;;;;;;9.32;6.55;;;11.60;99.90;;;;;;5034741;28;20109;-79
2021/10/10 05:33:29;;;;;;;10.15;7.22;;;11.60;99.90;;;;;;5034256;28;20045;-79
2021/10/10 05:35:55;;;;;;;10.00;6.85;;;11.50;99.90;;;;;;5034748;28;20029;-79
2021/10/10 05:38:21;;;;;;;9.23;6.68;;;11.50;99.90;;;;;;5029428;28;20030;-79
2021/10/10 05:40:47;;;;;;;14.07;7.28;;;11.40;99.90;;;;;;5025712;28;20049;-79
2021/10/10 05:43:12;;;;;;;16.08;7.20;;;11.40;99.90;;;;;;5027933;28;20080;-79
2021/10/10 05:45:38;;;;;;;12.60;6.93;;;11.40;99.90;;;;;;5021122;28;20030;-79
2021/10/10 05:48:04;;;;;;;13.65;7.55;;;11.40;99.90;;;;;;5014580;28;20049;-79
2021/10/10 05:50:30;;;;;;;12.60;6.88;;;11.40;99.90;;;;;;5014571;28;20029;-79
2021/10/10 05:52:56;;;;;;;13.15;7.43;;;11.30;99.90;;;;;;5014588;28;20488;-79
2021/10/10 05:55:24;;;;;;;14.13;7.25;;;11.40;99.90;;;;;;5013122;28;20476;-79
2021/10/10 05:57:51;;;;;;;11.55;6.95;;;11.40;99.90;;;;;;5014395;28;20018;-79
2021/10/10 06:00:19;;;;;;;13.02;7.68;;;11.40;99.90;;;;;;5014252;28;20467;-79
2021/10/10 06:02:46;;;;;;;11.15;6.95;;;11.40;99.90;;;;;;5014363;28;20380;-79
2021/10/10 06:05:12;;;;;;;12.50;7.07;;;11.50;99.90;;;;;;5031326;28;20034;-79
2021/10/10 06:07:38;;;;;;;9.13;7.18;;;11.50;99.90;;;;;;5033982;28;20097;-79
2021/10/10 06:10:06;;;;;;;16.13;7.22;;;11.50;99.90;;;;;;5033975;28;20037;-79
2021/10/10 06:12:32;;;;;;;12.30;7.65;;;11.40;99.90;;;;;;5031961;28;20079;-79
2021/10/10 06:15:04;;;;;;;14.25;7.72;;;11.40;99.90;;;;;;5033186;28;20032;-79
2021/10/10 06:17:34;;;;;;;15.05;7.13;;;11.40;99.90;;;;;;5031960;28;20025;-77
2021/10/10 06:20:01;;;;;;;14.95;7.30;;;11.50;99.90;;;;;;5031876;28;20071;-77
2021/10/10 06:22:26;;;;;;;16.42;7.45;;;11.60;99.90;;;;;;5031736;28;20040;-77
2021/10/10 06:24:53;;;;;;;14.07;7.60;;;11.70;99.90;;;;;;5030938;28;20025;-77
2021/10/10 06:27:18;;;;;;;11.02;6.85;;;11.70;99.90;;;;;;5030109;28;20159;-77
2021/10/10 06:29:45;;;;;;;13.43;6.80;;;11.80;99.90;;;;;;5031531;28;20104;-77
2021/10/10 06:32:11;;;;;;;12.88;6.63;;;11.90;99.90;;;;;;5031626;28;20152;-77
2021/10/10 06:34:37;;;;;;;13.23;7.22;;;12.00;99.90;;;;;;5031281;28;20497;-77
2021/10/10 06:37:03;;;;;;;12.05;7.28;;;12.10;99.90;;;;;;5032759;28;20025;-77
2021/10/10 06:39:28;;;;;;;12.55;7.10;;;12.10;99.90;;;;;;5031628;28;20022;-77
2021/10/10 06:41:54;;;;;;;12.00;7.15;;;12.20;99.90;;;;;;5032921;28;20029;-77
2021/10/10 06:44:20;;;;;;;12.35;6.95;;;12.20;99.90;;;;;;5033273;28;20488;-77
2021/10/10 06:46:46;;;;;;;11.57;7.03;;;12.30;99.90;;;;;;5033459;28;20422;-77
2021/10/10 06:49:13;;;;;;;10.60;6.45;;;12.30;99.90;;;;;;5033149;28;20032;-77
2021/10/10 06:51:39;;;;;;;12.85;6.78;;;12.30;99.90;;;;;;5031941;28;20030;-77
2021/10/10 06:54:04;;;;;;;7.70;5.85;;;12.40;99.90;;;;;;5031691;28;20574;-77
2021/10/10 06:56:30;;;;;;;11.50;6.22;;;12.40;99.90;;;;;;5031615;28;20116;-77
2021/10/10 06:58:56;;;;;;;7.25;5.45;;;12.50;99.10;;;;;;5033120;28;20104;-77
2021/10/10 07:01:21;;;;;;;13.60;5.85;;;12.60;99.10;;;;;;5032933;28;20075;-77
2021/10/10 07:03:47;;;;;;;12.43;6.65;;;12.70;99.90;;;;;;5031479;28;20079;-77
2021/10/10 07:06:13;;;;;;;11.98;6.13;;;12.80;98.70;;;;;;5032900;28;20087;-77
2021/10/10 07:08:38;;;;;;;7.68;5.75;;;12.90;97.40;;;;;;5032630;28;20018;-77
2021/10/10 07:11:04;;;;;;;14.00;6.03;;;12.90;96.70;;;;;;5032645;28;20264;-77
2021/10/10 07:13:30;;;;;;;6.82;5.03;;;13.00;96.00;;;;;;5031565;28;20531;-77
2021/10/10 07:15:56;;;;;;;11.18;5.88;;;13.00;96.00;;;;;;5032548;28;20521;-77
2021/10/10 07:18:26;;;;;;;11.45;6.63;;;13.10;95.70;;;;;;5032659;28;20025;-77
2021/10/10 07:21:21;;;;;;;7.03;5.60;;;13.10;95.90;;;;;;5032608;28;20100;-77
2021/10/10 07:26:22;;;;;;;6.55;5.85;;;13.20;96.70;;;;;;5032530;28;20065;-77
2021/10/10 07:28:48;;;;;;;12.88;6.50;;;13.20;95.70;;;;;;5032477;28;20018;-77
2021/10/10 07:31:13;;;;;;;9.98;5.50;;;13.30;94.70;;;;;;5032379;28;20033;-77
2021/10/10 07:33:40;;;;;;;8.02;5.85;;;13.30;95.10;;;;;;5031902;28;20189;-77
2021/10/10 07:36:06;;;;;;;7.35;4.88;;;13.30;95.20;;;;;;5032450;28;20022;-77
2021/10/10 07:38:33;;;;;;;8.98;5.38;;;13.40;94.40;;;;;;5030264;28;20557;-77
2021/10/10 07:41:03;;;;;;;7.53;5.13;;;13.40;94.40;;;;;;5030793;28;20121;-77
2021/10/10 07:43:30;;;;;;;8.00;5.88;;;13.40;94.30;;;;;;5030782;28;20025;-77
2021/10/10 07:46:05;;;;;;;8.65;5.38;;;13.40;94.30;;;;;;5032095;28;20033;-77
2021/10/10 07:48:32;;;;;;;14.07;5.57;;;13.40;94.10;;;;;;5030771;28;20376;-77
2021/10/10 07:50:57;;;;;;;7.95;5.07;;;13.50;94.30;;;;;;5030727;28;20037;-77
2021/10/10 07:53:23;;;;;;;14.82;7.78;;;13.50;94.10;;;;;;5031745;28;20030;-77
2021/10/10 07:55:48;;;;;;;9.75;6.05;;;13.60;93.60;;;;;;5032003;28;20024;-77
2021/10/10 07:58:14;;;;;;;9.27;6.03;;;13.50;93.50;;;;;;5031873;28;20498;-77
2021/10/10 08:00:40;;;;;;;6.50;5.38;;;13.60;93.90;;;;;;5030452;28;20039;-77
2021/10/10 08:03:06;;;;;;;11.48;6.05;;;13.60;93.50;;;;;;5031936;28;20108;-77
2021/10/10 08:05:42;;;;;;;10.50;5.15;;;13.70;93.70;;;;;;5051589;28;20036;-77
2021/10/10 08:08:09;;;;;;;9.00;5.65;;;13.70;93.50;;;;;;5035881;28;20487;-77
2021/10/10 08:10:35;;;;;;;88.43;37.90;;;13.70;93.10;;;;;;5031560;28;20029;-77
2021/10/10 08:13:01;;;;;;;13.95;8.40;;;13.70;93.80;;;;;;5031688;28;20485;-77
2021/10/10 08:15:27;;;;;;;13.32;6.80;;;13.80;94.10;;;;;;5063535;28;20019;-77
2021/10/10 08:17:53;;;;;;;11.30;6.22;;;13.80;93.70;;;;;;5031612;28;20439;-77
2021/10/10 08:20:19;;;;;;;7.72;5.55;;;13.90;93.90;;;;;;5063638;28;20065;-77
2021/10/10 08:22:46;;;;;;;10.23;5.13;;;13.90;93.50;;;;;;5031567;28;20061;-77
2021/10/10 08:25:13;;;;;;;11.60;6.15;;;13.90;93.70;;;;;;5063500;28;20025;-77
2021/10/10 08:27:40;;;;;;;8.60;6.15;;;13.80;93.20;;;;;;5030176;28;20014;-77
2021/10/10 08:30:09;;;;;;;8.13;5.30;;;13.90;94.10;;;;;;5031335;28;20021;-77
2021/10/10 08:32:35;;;;;;;10.82;6.28;;;13.80;94.20;;;;;;5031072;28;20065;-77
2021/10/10 08:35:02;;;;;;;9.70;5.97;;;13.90;93.50;;;;;;5029952;28;20493;-77
2021/10/10 08:37:28;;;;;;;15.95;9.13;;;13.90;94.00;;;;;;5031323;28;20360;-77
2021/10/10 08:39:53;;;;;;;6.65;5.47;;;14.00;94.70;;;;;;5031337;28;20082;-77
2021/10/10 08:42:28;;;;;;;13.98;7.53;;;14.00;93.40;;;;;;5031228;28;20033;-77
2021/10/10 08:45:03;;;;;;;71.95;31.58;;;14.10;93.00;;;;;;5029862;28;20018;-77
2021/10/10 08:47:31;;;;;;;30.30;14.52;;;14.10;92.80;;;;;;5030840;28;20024;-77
2021/10/10 08:49:57;;;;;;;19.45;9.88;;;14.10;92.10;;;;;;5031882;28;20052;-77
2021/10/10 08:52:23;;;;;;;20.38;9.60;;;14.20;92.80;;;;;;5035504;28;20049;-77
2021/10/10 08:54:51;;;;;;;12.57;5.90;;;14.20;92.30;;;;;;5035152;28;20022;-77
2021/10/10 08:57:17;;;;;;;13.57;5.80;;;14.20;91.30;;;;;;5033866;28;20499;-77
2021/10/10 08:59:48;;;;;;;6.32;5.13;;;14.20;90.60;;;;;;5035397;28;20454;-77
2021/10/10 09:02:19;;;;;;;65.85;28.95;;;14.30;91.60;;;;;;5034058;28;20051;-77
2021/10/10 09:04:45;;;;;;;51.35;22.80;;;14.30;91.80;;;;;;5048869;28;20078;-77
2021/10/10 09:07:11;;;;;;;74.05;32.35;;;14.30;91.00;;;;;;5054905;28;20548;-77
2021/10/10 09:09:39;;;;;;;31.30;14.57;;;14.40;90.20;;;;;;5053645;28;20017;-77
2021/10/10 09:12:10;;;;;;;8.13;6.47;;;14.40;90.30;;;;;;5055034;28;20040;-77
2021/10/10 09:14:50;;;;;;;8.87;6.70;;;14.40;90.20;;;;;;5054927;28;20430;-77
2021/10/10 09:17:18;;;;;;;14.68;8.07;;;14.50;90.90;;;;;;5053482;28;20108;-76
2021/10/10 09:19:56;;;;;;;13.90;7.32;;;14.50;91.10;;;;;;5054846;28;20522;-77
2021/10/10 09:22:23;;;;;;;60.65;26.33;;;14.50;91.30;;;;;;5053253;28;20223;-77
2021/10/10 09:24:50;;;;;;;14.18;7.90;;;14.60;91.60;;;;;;5054840;28;20029;-77
2021/10/10 09:27:17;;;;;;;15.65;8.50;;;14.60;90.60;;;;;;5053330;28;20037;-77
2021/10/10 09:29:46;;;;;;;13.68;8.98;;;14.50;90.70;;;;;;5054489;28;20487;-77
2021/10/10 09:32:19;;;;;;;10.18;6.22;;;14.60;90.50;;;;;;5054283;28;20017;-77
2021/10/10 09:34:47;;;;;;;12.48;5.93;;;14.60;90.70;;;;;;5054230;28;20491;-77
2021/10/10 09:37:21;;;;;;;14.80;9.65;;;14.60;90.70;;;;;;5054400;28;20100;-77
2021/10/10 09:39:55;;;;;;;12.43;7.68;;;14.50;89.40;;;;;;5054480;28;20021;-77
2021/10/10 09:42:32;;;;;;;12.77;8.82;;;14.60;90.80;;;;;;5053062;28;20047;-77
2021/10/10 09:45:24;;;;;;;16.35;9.15;;;14.60;90.40;;;;;;5054030;28;20018;-77
2021/10/10 09:47:56;;;;;;;13.30;6.38;;;14.60;90.00;;;;;;5052946;28;20053;-76
2021/10/10 09:50:33;;;;;;;18.98;9.95;;;14.60;88.90;;;;;;5054167;28;20044;-77
2021/10/10 09:53:09;;;;;;;15.82;8.40;;;14.60;89.70;;;;;;5054106;28;20364;-77
2021/10/10 09:56:00;;;;;;;12.95;7.95;;;14.60;89.20;;;;;;5054161;28;20029;-77
2021/10/10 09:58:45;;;;;;;11.48;6.00;;;14.70;89.80;;;;;;5054269;28;20029;-77
2021/10/10 10:01:18;;;;;;;8.32;5.80;;;14.70;90.30;;;;;;5052933;28;20491;-77
2021/10/10 10:03:57;;;;;;;;;;;14.70;90.40;;;;;;5052918;28;20025;-77
2021/10/10 10:06:23;;;;;;;9.35;6.32;;;14.80;90.20;;;;;;5053844;28;19908;-77
2021/10/10 10:08:49;;;;;;;11.25;6.45;;;14.80;88.20;;;;;;5053452;28;20040;-77
2021/10/10 10:11:19;;;;;;;14.52;9.68;;;14.80;89.20;;;;;;5065700;28;20104;-77
2021/10/10 10:13:45;;;;;;;15.98;9.30;;;14.80;90.10;;;;;;5065815;28;20035;-77
2021/10/10 10:16:15;;;;;;;38.00;19.27;;;14.80;88.50;;;;;;5033628;28;20025;-77
2021/10/10 10:18:41;;;;;;;126.18;59.10;;;14.90;88.50;;;;;;5033735;28;20030;-77
2021/10/10 10:21:09;;;;;;;16.05;10.55;;;14.90;87.00;;;;;;5033851;28;20363;-77
2021/10/10 10:23:36;;;;;;;13.20;8.25;;;14.80;88.80;;;;;;5033867;28;20079;-77
2021/10/10 10:26:03;;;;;;;13.77;6.32;;;15.00;90.20;;;;;;5033507;28;20521;-77
2021/10/10 10:28:31;;;;;;;10.70;6.20;;;15.00;86.80;;;;;;5033500;28;20257;-77
2021/10/10 10:30:58;;;;;;;13.77;7.25;;;15.00;86.20;;;;;;5065638;28;20036;-77
2021/10/10 10:33:31;;;;;;;6.95;5.45;;;15.00;87.20;;;;;;5065167;28;20099;-77
2021/10/10 10:35:57;;;;;;;9.85;5.75;;;15.00;86.20;;;;;;5033397;28;20062;-77
2021/10/10 10:38:53;;;;;;;11.07;5.85;;;15.10;86.00;;;;;;5033287;28;20021;-77
2021/10/10 10:41:51;;;;;;;6.75;5.25;;;15.10;84.60;;;;;;5018162;28;20512;-77
2021/10/10 10:44:40;;;;;;;7.80;5.57;;;15.20;87.70;;;;;;5032066;28;20064;-77
2021/10/10 10:47:17;;;;;;;9.50;6.00;;;15.20;87.50;;;;;;5033471;28;20035;-77
2021/10/10 10:49:55;;;;;;;14.40;5.68;;;15.20;85.80;;;;;;5033168;28;20029;-77
2021/10/10 10:52:33;;;;;;;8.52;5.82;;;15.20;85.80;;;;;;5031124;28;20101;-77
2021/10/10 10:55:05;;;;;;;12.25;7.97;;;15.20;84.80;;;;;;5034871;28;20025;-77
2021/10/10 10:57:35;;;;;;;22.60;10.68;;;15.20;85.60;;;;;;5032910;28;20022;-77
2021/10/10 11:00:09;;;;;;;10.85;7.07;;;15.20;84.60;;;;;;5031695;28;20071;-77
2021/10/10 11:02:53;;;;;;;10.20;5.80;;;15.30;86.80;;;;;;5031804;28;20025;-77
2021/10/10 11:05:46;;;;;;;9.30;5.75;;;15.30;86.30;;;;;;5049583;28;20079;-77
2021/10/10 11:08:25;;;;;;;11.02;6.47;;;15.30;84.10;;;;;;5052664;28;20369;-77
2021/10/10 11:11:00;;;;;;;10.05;5.60;;;15.30;83.90;;;;;;5052621;28;20028;-77
2021/10/10 11:13:28;;;;;;;9.32;6.43;;;15.30;84.80;;;;;;5051630;28;20040;-77
2021/10/10 11:15:55;;;;;;;11.35;5.90;;;15.40;84.60;;;;;;5052535;28;20055;-77
2021/10/10 11:18:28;;;;;;;11.18;5.70;;;15.40;86.60;;;;;;5052517;28;20071;-77
2021/10/10 11:21:01;;;;;;;9.27;5.47;;;15.50;87.50;;;;;;5052359;28;20364;-77
2021/10/10 11:23:28;;;;;;;9.50;5.32;;;15.60;85.20;;;;;;5052428;28;20079;-77
2021/10/10 11:25:56;;;;;;;7.80;5.95;;;15.50;85.70;;;;;;5052360;28;20070;-77
2021/10/10 11:28:49;;;;;;;7.15;5.03;;;15.60;87.60;;;;;;5052347;28;20052;-77
2021/10/10 11:31:29;;;;;;;12.80;5.43;;;15.70;88.80;;;;;;5049292;28;20049;-77
2021/10/10 11:33:58;;;;;;;6.10;5.07;;;15.80;85.50;;;;;;5045292;28;20503;-77
2021/10/10 11:36:46;;;;;;;9.52;5.88;;;15.90;86.70;;;;;;5031924;28;20113;-77
2021/10/10 11:39:17;;;;;;;11.07;5.55;;;15.90;84.70;;;;;;5031919;28;20036;-77
2021/10/10 11:41:52;;;;;;;10.13;5.88;;;15.90;84.50;;;;;;5025897;28;20025;-77
2021/10/10 11:44:23;;;;;;;9.68;5.50;;;15.90;84.50;;;;;;5025104;28;20055;-77
2021/10/10 11:46:54;;;;;;;9.27;5.78;;;15.90;83.80;;;;;;5030995;28;20029;-77
2021/10/10 11:49:38;;;;;;;9.77;5.45;;;15.80;82.10;;;;;;5030537;28;20025;-77
2021/10/10 11:52:16;;;;;;;8.02;5.55;;;15.80;83.80;;;;;;5034947;28;20029;-77
2021/10/10 11:54:44;;;;;;;9.13;5.45;;;15.80;84.60;;;;;;5030650;28;20178;-77
2021/10/10 11:57:11;;;;;;;9.43;5.50;;;15.90;85.60;;;;;;5038372;28;20447;-77
2021/10/10 11:59:46;;;;;;;8.18;5.40;;;15.90;83.90;;;;;;5029156;28;20030;-77
2021/10/10 12:02:12;;;;;;;7.57;5.78;;;16.00;83.80;;;;;;5027395;28;20033;-77
2021/10/10 12:04:38;;;;;;;8.70;5.50;;;15.90;84.30;;;;;;5016288;28;20044;-77
2021/10/10 12:07:04;;;;;;;8.02;5.32;;;16.00;85.10;;;;;;5019403;28;20049;-77
2021/10/10 12:09:33;;;;;;;14.27;5.90;;;16.00;86.10;;;;;;5025350;28;20061;-77
2021/10/10 12:12:12;;;;;;;7.90;4.80;;;16.10;87.20;;;;;;5019843;28;20079;-77
2021/10/10 12:14:41;;;;;;;7.97;5.22;;;16.00;84.90;;;;;;5017095;28;20037;-77
2021/10/10 12:17:07;;;;;;;9.90;5.40;;;16.10;87.10;;;;;;5018452;28;20029;-77
2021/10/10 12:19:43;;;;;;;12.50;5.40;;;16.20;86.20;;;;;;5018380;28;20021;-77
2021/10/10 12:22:09;;;;;;;9.13;5.88;;;16.20;85.60;;;;;;5022673;28;20018;-77
2021/10/10 12:24:45;;;;;;;7.95;5.35;;;16.30;83.60;;;;;;5017742;28;20033;-77
2021/10/10 12:27:11;;;;;;;8.10;5.38;;;16.30;84.80;;;;;;5021441;28;20053;-79
2021/10/10 12:29:44;;;;;;;10.35;5.32;;;16.30;83.60;;;;;;5017709;28;20036;-79
2021/10/10 12:32:29;;;;;;;8.52;6.07;;;16.30;85.80;;;;;;5018708;28;20388;-79
2021/10/10 12:35:16;;;;;;;10.77;5.65;;;16.40;85.30;;;;;;5026854;28;20049;-79
2021/10/10 12:37:58;;;;;;;12.02;5.75;;;16.40;85.90;;;;;;5020752;28;20432;-79
2021/10/10 12:40:30;;;;;;;13.32;5.50;;;16.40;85.40;;;;;;5026128;28;20022;-78
2021/10/10 12:42:58;;;;;;;9.68;5.80;;;16.30;83.00;;;;;;5022236;28;20128;-79
2021/10/10 12:45:28;;;;;;;10.70;5.85;;;16.20;83.10;;;;;;5026230;28;20018;-79
2021/10/10 12:47:58;;;;;;;8.75;5.82;;;16.20;84.00;;;;;;5013365;28;20029;-79
2021/10/10 12:50:24;;;;;;;8.43;5.82;;;16.20;83.80;;;;;;5017568;28;20084;-78